createdAt,value
2018-06-10T00:00:23.327Z,0
2018-06-10T00:01:32.469Z,0
2018-06-10T00:02:41.612Z,0
2018-06-10T00:03:50.755Z,0
2018-06-10T00:05:00.169Z,0
2018-06-10T00:06:09.311Z,0
2018-06-10T00:07:18.176Z,0
2018-06-10T00:08:27.043Z,0
2018-06-10T00:09:35.958Z,0
2018-06-10T00:10:44.820Z,0
2018-06-10T00:11:53.964Z,0
2018-06-10T00:13:02.828Z,0
2018-06-10T00:14:11.969Z,0
2018-06-10T00:15:20.885Z,0
2018-06-10T00:16:29.748Z,0
2018-06-10T00:17:38.614Z,0
2018-06-10T00:18:48.032Z,0
2018-06-10T00:19:56.902Z,0
2018-06-10T00:21:06.092Z,0
2018-06-10T00:22:14.952Z,0
2018-06-10T00:23:24.092Z,0
2018-06-10T00:24:32.956Z,0
2018-06-10T00:25:41.821Z,0
2018-06-10T00:26:50.835Z,0
2018-06-10T00:27:59.976Z,0
2018-06-10T00:29:08.839Z,0
2018-06-10T00:30:17.705Z,0
2018-06-10T00:31:26.571Z,0
2018-06-10T00:32:35.710Z,0
2018-06-10T00:33:44.848Z,0
2018-06-10T00:34:53.713Z,0
2018-06-10T00:36:02.585Z,0
2018-06-10T00:37:11.443Z,0
2018-06-10T00:38:20.658Z,0
2018-06-10T00:39:29.524Z,0
2018-06-10T00:40:38.388Z,0
2018-06-10T00:41:47.249Z,0
2018-06-10T00:42:56.114Z,0
2018-06-10T00:44:05.076Z,0
2018-06-10T00:45:13.940Z,0
2018-06-10T00:46:22.803Z,0
2018-06-10T00:47:31.668Z,0
2018-06-10T00:48:40.535Z,0
2018-06-10T00:49:49.679Z,0
2018-06-10T00:50:58.539Z,0
2018-06-10T00:52:07.406Z,0
2018-06-10T00:53:16.272Z,0
2018-06-10T00:54:25.136Z,0
2018-06-10T00:55:34.152Z,0
2018-06-10T00:56:43.015Z,0
2018-06-10T00:57:52.438Z,0
2018-06-10T00:59:01.574Z,0
2018-06-10T01:00:10.438Z,0
2018-06-10T01:01:19.454Z,0
2018-06-10T01:02:28.319Z,0
2018-06-10T01:03:37.187Z,0
2018-06-10T01:04:46.054Z,0
2018-06-10T01:05:54.918Z,0
2018-06-10T01:07:03.783Z,0
2018-06-10T01:08:12.650Z,0
2018-06-10T01:09:21.515Z,0
2018-06-10T01:10:30.379Z,0
2018-06-10T01:11:39.243Z,0
2018-06-10T01:12:48.387Z,0
2018-06-10T01:13:57.250Z,0
2018-06-10T01:15:06.125Z,0
2018-06-10T01:16:14.981Z,0
2018-06-10T01:17:23.847Z,0
2018-06-10T01:18:32.764Z,0
2018-06-10T01:19:41.631Z,0
2018-06-10T01:20:50.492Z,0
2018-06-10T01:21:59.635Z,0
2018-06-10T01:23:08.773Z,0
2018-06-10T01:24:17.636Z,0
2018-06-10T01:25:26.503Z,0
2018-06-10T01:26:35.641Z,0
2018-06-10T01:27:44.504Z,0
2018-06-10T01:28:53.368Z,0
2018-06-10T01:30:02.538Z,0
2018-06-10T01:31:11.682Z,0
2018-06-10T01:32:20.546Z,0
2018-06-10T01:33:29.411Z,0
2018-06-10T01:34:38.275Z,0
2018-06-10T01:35:47.142Z,0
2018-06-10T01:36:56.280Z,0
2018-06-10T01:38:05.428Z,0
2018-06-10T01:39:14.290Z,0
2018-06-10T01:40:23.158Z,0
2018-06-10T01:41:32.173Z,0
2018-06-10T01:42:41.313Z,0
2018-06-10T01:43:50.178Z,0
2018-06-10T01:44:59.321Z,0
2018-06-10T01:46:08.193Z,0
2018-06-10T01:47:17.054Z,0
2018-06-10T01:48:25.918Z,0
2018-06-10T01:49:34.781Z,0
2018-06-10T01:50:43.645Z,0
2018-06-10T01:51:52.509Z,0
2018-06-10T01:53:01.471Z,0
2018-06-10T01:54:10.335Z,0
2018-06-10T01:55:19.200Z,0
2018-06-10T01:56:28.344Z,0
2018-06-10T01:57:37.483Z,0
2018-06-10T01:58:46.624Z,0
2018-06-10T01:59:55.762Z,0
2018-06-10T02:01:04.625Z,0
2018-06-10T02:02:13.488Z,0
2018-06-10T02:03:22.353Z,0
2018-06-10T02:04:31.222Z,0
2018-06-10T02:05:40.086Z,0
2018-06-10T02:06:48.948Z,0
2018-06-10T02:07:57.811Z,0
2018-06-10T02:09:06.677Z,0
2018-06-10T02:10:15.888Z,0
2018-06-10T02:11:25.029Z,0
2018-06-10T02:12:34.168Z,0
2018-06-10T02:13:43.314Z,0
2018-06-10T02:14:52.452Z,0
2018-06-10T02:16:01.799Z,0
2018-06-10T02:17:10.948Z,0
2018-06-10T02:18:19.809Z,0
2018-06-10T02:19:28.681Z,0
2018-06-10T02:20:37.540Z,0
2018-06-10T02:21:46.657Z,0
2018-06-10T02:22:55.519Z,0
2018-06-10T02:24:04.383Z,0
2018-06-10T02:25:13.520Z,0
2018-06-10T02:26:22.386Z,0
2018-06-10T02:27:31.853Z,0
2018-06-10T02:28:40.988Z,0
2018-06-10T02:29:50.410Z,0
2018-06-10T02:30:59.554Z,0
2018-06-10T02:32:08.708Z,0
2018-06-10T02:33:17.903Z,0
2018-06-10T02:34:26.777Z,0
2018-06-10T02:35:35.640Z,0
2018-06-10T02:36:44.507Z,0
2018-06-10T02:37:53.654Z,0
2018-06-10T02:39:02.846Z,0
2018-06-10T02:40:11.709Z,0
2018-06-10T02:41:20.851Z,0
2018-06-10T02:42:29.715Z,0
2018-06-10T02:43:38.586Z,0
2018-06-10T02:44:47.498Z,0
2018-06-10T02:45:56.640Z,0
2018-06-10T02:47:05.783Z,0
2018-06-10T02:48:14.651Z,0
2018-06-10T02:49:23.790Z,0
2018-06-10T02:50:32.660Z,0
2018-06-10T02:51:42.085Z,0
2018-06-10T02:52:51.238Z,0
2018-06-10T02:54:00.435Z,0
2018-06-10T02:55:09.817Z,5
2018-06-10T02:56:18.834Z,5
2018-06-10T02:57:28.250Z,5
2018-06-10T02:58:37.438Z,5
2018-06-10T02:59:46.854Z,5
2018-06-10T03:00:55.719Z,5
2018-06-10T03:02:04.862Z,5
2018-06-10T03:03:14.293Z,5
2018-06-10T03:04:23.160Z,5
2018-06-10T03:05:32.308Z,5
2018-06-10T03:06:41.782Z,10
2018-06-10T03:07:50.684Z,10
2018-06-10T03:08:59.517Z,10
2018-06-10T03:10:08.946Z,10
2018-06-10T03:11:18.377Z,10
2018-06-10T03:12:27.519Z,10
2018-06-10T03:13:36.992Z,15
2018-06-10T03:14:46.417Z,15
2018-06-10T03:15:55.281Z,15
2018-06-10T03:17:04.143Z,15
2018-06-10T03:18:13.554Z,15
2018-06-10T03:19:22.518Z,15
2018-06-10T03:20:31.380Z,15
2018-06-10T03:21:40.243Z,20
2018-06-10T03:22:49.383Z,20
2018-06-10T03:23:58.247Z,20
2018-06-10T03:25:07.159Z,25
2018-06-10T03:26:16.022Z,25
2018-06-10T03:27:25.438Z,25
2018-06-10T03:28:34.303Z,30
2018-06-10T03:29:43.167Z,30
2018-06-10T03:30:53.010Z,30
2018-06-10T03:32:03.021Z,35
2018-06-10T03:33:11.875Z,35
2018-06-10T03:34:21.014Z,35
2018-06-10T03:35:29.877Z,35
2018-06-10T03:36:39.094Z,35
2018-06-10T03:37:47.955Z,35
2018-06-10T03:38:56.818Z,35
2018-06-10T03:40:05.682Z,40
2018-06-10T03:41:15.103Z,40
2018-06-10T03:42:24.018Z,40
2018-06-10T03:43:32.981Z,45
2018-06-10T03:44:41.842Z,45
2018-06-10T03:45:50.704Z,45
2018-06-10T03:47:00.122Z,45
2018-06-10T03:48:09.081Z,45
2018-06-10T03:49:17.944Z,50
2018-06-10T03:50:26.855Z,50
2018-06-10T03:51:35.996Z,55
2018-06-10T03:52:45.414Z,55
2018-06-10T03:53:54.625Z,60
2018-06-10T03:55:03.489Z,60
2018-06-10T03:56:12.354Z,65
2018-06-10T03:57:21.217Z,65
2018-06-10T03:58:30.080Z,70
2018-06-10T03:59:39.368Z,70
2018-06-10T04:00:48.506Z,75
2018-06-10T04:01:57.369Z,75
2018-06-10T04:03:06.231Z,75
2018-06-10T04:04:15.096Z,75
2018-06-10T04:05:24.058Z,75
2018-06-10T04:06:32.922Z,75
2018-06-10T04:07:42.064Z,70
2018-06-10T04:08:51.201Z,70
2018-06-10T04:10:00.089Z,70
2018-06-10T04:11:09.051Z,70
2018-06-10T04:12:18.193Z,70
2018-06-10T04:13:27.054Z,70
2018-06-10T04:14:36.190Z,70
2018-06-10T04:15:45.056Z,70
2018-06-10T04:16:54.344Z,70
2018-06-10T04:18:03.208Z,70
2018-06-10T04:19:12.071Z,70
2018-06-10T04:20:20.935Z,70
2018-06-10T04:21:29.799Z,75
2018-06-10T04:22:38.745Z,85
2018-06-10T04:23:47.575Z,95
2018-06-10T04:24:56.447Z,105
2018-06-10T04:26:05.311Z,115
2018-06-10T04:27:14.176Z,125
2018-06-10T04:28:23.286Z,135
2018-06-10T04:29:32.148Z,140
2018-06-10T04:30:41.293Z,130
2018-06-10T04:31:50.159Z,140
2018-06-10T04:32:59.021Z,140
2018-06-10T04:34:08.035Z,130
2018-06-10T04:35:16.901Z,130
2018-06-10T04:36:26.603Z,125
2018-06-10T04:37:35.465Z,100
2018-06-10T04:38:44.891Z,95
2018-06-10T04:39:54.006Z,80
2018-06-10T04:41:02.864Z,60
2018-06-10T04:42:11.728Z,60
2018-06-10T04:43:20.594Z,60
2018-06-10T04:44:29.456Z,70
2018-06-10T04:45:38.372Z,80
2018-06-10T04:46:47.240Z,85
2018-06-10T04:47:56.384Z,80
2018-06-10T04:49:05.245Z,75
2018-06-10T04:50:14.108Z,100
2018-06-10T04:51:23.223Z,85
2018-06-10T04:52:32.083Z,75
2018-06-10T04:53:40.947Z,90
2018-06-10T04:54:49.811Z,95
2018-06-10T04:55:58.676Z,95
2018-06-10T04:57:07.918Z,80
2018-06-10T04:58:16.781Z,90
2018-06-10T04:59:25.647Z,90
2018-06-10T05:00:34.785Z,90
2018-06-10T05:01:43.702Z,95
2018-06-10T05:02:52.846Z,100
2018-06-10T05:04:01.988Z,105
2018-06-10T05:05:10.849Z,120
2018-06-10T05:06:19.991Z,115
2018-06-10T05:07:28.855Z,140
2018-06-10T05:08:38.001Z,160
2018-06-10T05:09:46.863Z,135
2018-06-10T05:10:55.731Z,155
2018-06-10T05:12:04.870Z,135
2018-06-10T05:13:13.734Z,130
2018-06-10T05:14:22.603Z,110
2018-06-10T05:15:31.753Z,115
2018-06-10T05:16:40.615Z,105
2018-06-10T05:17:49.476Z,105
2018-06-10T05:18:58.338Z,100
2018-06-10T05:20:07.591Z,110
2018-06-10T05:21:16.677Z,120
2018-06-10T05:22:25.816Z,120
2018-06-10T05:23:34.680Z,130
2018-06-10T05:24:43.543Z,130
2018-06-10T05:25:52.507Z,125
2018-06-10T05:27:01.393Z,145
2018-06-10T05:28:10.256Z,150
2018-06-10T05:29:19.406Z,150
2018-06-10T05:30:28.263Z,155
2018-06-10T05:31:37.278Z,150
2018-06-10T05:32:46.138Z,155
2018-06-10T05:33:55.002Z,160
2018-06-10T05:35:03.869Z,150
2018-06-10T05:36:12.736Z,150
2018-06-10T05:37:21.692Z,145
2018-06-10T05:38:30.554Z,140
2018-06-10T05:39:39.420Z,155
2018-06-10T05:40:48.286Z,140
2018-06-10T05:41:57.143Z,130
2018-06-10T05:43:06.013Z,110
2018-06-10T05:44:15.146Z,110
2018-06-10T05:45:24.008Z,115
2018-06-10T05:46:32.871Z,105
2018-06-10T05:47:41.841Z,95
2018-06-10T05:48:50.979Z,90
2018-06-10T05:49:59.839Z,90
2018-06-10T05:51:08.986Z,90
2018-06-10T05:52:18.121Z,90
2018-06-10T05:53:26.984Z,90
2018-06-10T05:54:35.845Z,90
2018-06-10T05:55:44.708Z,90
2018-06-10T05:56:53.573Z,90
2018-06-10T05:58:02.715Z,85
2018-06-10T05:59:11.577Z,90
2018-06-10T06:00:20.820Z,90
2018-06-10T06:01:29.682Z,90
2018-06-10T06:02:38.542Z,95
2018-06-10T06:03:47.406Z,95
2018-06-10T06:04:56.267Z,100
2018-06-10T06:06:05.178Z,105
2018-06-10T06:07:14.320Z,105
2018-06-10T06:08:23.465Z,105
2018-06-10T06:09:32.326Z,110
2018-06-10T06:10:41.189Z,110
2018-06-10T06:11:50.341Z,115
2018-06-10T06:12:59.205Z,125
2018-06-10T06:14:08.066Z,130
2018-06-10T06:15:17.210Z,140
2018-06-10T06:16:26.075Z,145
2018-06-10T06:17:35.040Z,155
2018-06-10T06:18:43.904Z,160
2018-06-10T06:19:52.770Z,175
2018-06-10T06:21:01.630Z,185
2018-06-10T06:22:10.493Z,190
2018-06-10T06:23:19.353Z,190
2018-06-10T06:24:28.216Z,195
2018-06-10T06:25:37.076Z,190
2018-06-10T06:26:45.938Z,185
2018-06-10T06:27:54.799Z,185
2018-06-10T06:29:03.713Z,180
2018-06-10T06:30:13.136Z,180
2018-06-10T06:31:22.276Z,180
2018-06-10T06:32:31.136Z,180
2018-06-10T06:33:39.997Z,175
2018-06-10T06:34:49.012Z,175
2018-06-10T06:35:57.870Z,175
2018-06-10T06:37:06.733Z,170
2018-06-10T06:38:15.875Z,170
2018-06-10T06:39:24.767Z,170
2018-06-10T06:40:33.701Z,170
2018-06-10T06:41:42.565Z,165
2018-06-10T06:42:51.428Z,150
2018-06-10T06:44:00.293Z,140
2018-06-10T06:45:09.164Z,145
2018-06-10T06:46:18.375Z,125
2018-06-10T06:47:27.240Z,125
2018-06-10T06:48:36.658Z,125
2018-06-10T06:49:45.797Z,115
2018-06-10T06:50:54.663Z,105
2018-06-10T06:52:03.525Z,105
2018-06-10T06:53:12.663Z,110
2018-06-10T06:54:21.525Z,130
2018-06-10T06:55:30.389Z,135
2018-06-10T06:56:39.252Z,135
2018-06-10T06:57:48.200Z,125
2018-06-10T06:58:57.027Z,130
2018-06-10T07:00:06.165Z,130
2018-06-10T07:01:15.035Z,130
2018-06-10T07:02:23.900Z,135
2018-06-10T07:03:33.041Z,155
2018-06-10T07:04:42.175Z,160
2018-06-10T07:05:51.042Z,155
2018-06-10T07:06:59.904Z,150
2018-06-10T07:08:08.766Z,150
2018-06-10T07:09:17.631Z,160
2018-06-10T07:10:26.504Z,155
2018-06-10T07:11:35.364Z,170
2018-06-10T07:12:44.232Z,165
2018-06-10T07:13:53.116Z,180
2018-06-10T07:15:02.331Z,170
2018-06-10T07:16:11.198Z,145
2018-06-10T07:17:20.068Z,140
2018-06-10T07:18:28.935Z,145
2018-06-10T07:19:37.796Z,145
2018-06-10T07:20:46.713Z,150
2018-06-10T07:21:55.578Z,145
2018-06-10T07:23:04.454Z,145
2018-06-10T07:24:13.312Z,145
2018-06-10T07:25:22.177Z,140
2018-06-10T07:26:31.393Z,130
2018-06-10T07:27:44.238Z,125
2018-06-10T07:28:53.816Z,120
2018-06-10T07:30:02.681Z,115
2018-06-10T07:31:11.544Z,110
2018-06-10T07:32:20.869Z,120
2018-06-10T07:33:30.041Z,125
2018-06-10T07:34:38.900Z,125
2018-06-10T07:35:47.767Z,125
2018-06-10T07:36:56.628Z,120
2018-06-10T07:38:05.592Z,120
2018-06-10T07:39:15.007Z,115
2018-06-10T07:40:23.873Z,120
2018-06-10T07:41:33.014Z,120
2018-06-10T07:42:41.880Z,130
2018-06-10T07:43:51.119Z,130
2018-06-10T07:44:59.984Z,130
2018-06-10T07:46:08.845Z,135
2018-06-10T07:47:17.989Z,135
2018-06-10T07:48:27.252Z,140
2018-06-10T07:49:36.077Z,150
2018-06-10T07:50:44.938Z,155
2018-06-10T07:51:54.079Z,155
2018-06-10T07:53:03.215Z,160
2018-06-10T07:54:12.076Z,165
2018-06-10T07:55:20.992Z,175
2018-06-10T07:56:30.131Z,180
2018-06-10T07:57:40.224Z,180
2018-06-10T07:58:49.087Z,180
2018-06-10T07:59:57.953Z,185
2018-06-10T08:01:07.383Z,195
2018-06-10T08:02:16.516Z,195
2018-06-10T08:03:25.377Z,195
2018-06-10T08:04:34.515Z,205
2018-06-10T08:05:43.377Z,210
2018-06-10T08:06:52.237Z,210
2018-06-10T08:08:01.101Z,210
2018-06-10T08:09:09.964Z,205
2018-06-10T08:10:18.825Z,210
2018-06-10T08:11:27.686Z,210
2018-06-10T08:12:36.557Z,210
2018-06-10T08:13:45.416Z,210
2018-06-10T08:14:54.575Z,220
2018-06-10T08:16:03.433Z,220
2018-06-10T08:17:12.296Z,220
2018-06-10T08:18:21.158Z,240
2018-06-10T08:19:30.021Z,250
2018-06-10T08:20:39.167Z,255
2018-06-10T08:21:48.026Z,260
2018-06-10T08:22:57.167Z,260
2018-06-10T08:24:06.318Z,260
2018-06-10T08:25:15.182Z,265
2018-06-10T08:26:24.209Z,265
2018-06-10T08:27:33.353Z,280
2018-06-10T08:28:42.215Z,285
2018-06-10T08:29:51.076Z,295
2018-06-10T08:30:59.937Z,300
2018-06-10T08:32:09.959Z,300
2018-06-10T08:33:18.821Z,290
2018-06-10T08:34:27.961Z,280
2018-06-10T08:35:36.825Z,265
2018-06-10T08:36:45.795Z,260
2018-06-10T08:37:55.090Z,260
2018-06-10T08:39:04.541Z,260
2018-06-10T08:40:13.408Z,265
2018-06-10T08:41:22.546Z,275
2018-06-10T08:42:31.409Z,290
2018-06-10T08:43:40.421Z,310
2018-06-10T08:44:49.285Z,325
2018-06-10T08:45:58.147Z,335
2018-06-10T08:47:07.153Z,340
2018-06-10T08:48:16.020Z,335
2018-06-10T08:49:25.112Z,325
2018-06-10T08:50:34.003Z,325
2018-06-10T08:51:42.846Z,330
2018-06-10T08:52:52.259Z,335
2018-06-10T08:54:01.120Z,345
2018-06-10T08:55:09.988Z,355
2018-06-10T08:56:18.853Z,360
2018-06-10T08:57:27.994Z,370
2018-06-10T08:58:36.863Z,370
2018-06-10T08:59:46.436Z,375
2018-06-10T09:00:59.764Z,380
2018-06-10T09:02:11.811Z,335
2018-06-10T09:03:21.076Z,370
2018-06-10T09:04:29.940Z,315
2018-06-10T09:05:39.079Z,325
2018-06-10T09:06:48.580Z,360
2018-06-10T09:07:58.008Z,430
2018-06-10T09:09:07.526Z,435
2018-06-10T09:10:16.429Z,445
2018-06-10T09:11:25.572Z,420
2018-06-10T09:12:34.439Z,395
2018-06-10T09:13:43.302Z,385
2018-06-10T09:14:52.190Z,325
2018-06-10T09:16:01.027Z,280
2018-06-10T09:17:09.891Z,260
2018-06-10T09:18:18.754Z,270
2018-06-10T09:19:27.620Z,320
2018-06-10T09:20:36.762Z,315
2018-06-10T09:21:45.625Z,345
2018-06-10T09:22:54.771Z,390
2018-06-10T09:24:03.637Z,340
2018-06-10T09:25:12.501Z,295
2018-06-10T09:26:21.368Z,275
2018-06-10T09:27:30.230Z,305
2018-06-10T09:28:39.373Z,410
2018-06-10T09:29:48.237Z,420
2018-06-10T09:30:57.102Z,410
2018-06-10T09:32:06.349Z,410
2018-06-10T09:33:15.519Z,500
2018-06-10T09:34:24.659Z,545
2018-06-10T09:35:33.555Z,590
2018-06-10T09:36:42.389Z,600
2018-06-10T09:37:51.601Z,570
2018-06-10T09:39:00.747Z,605
2018-06-10T09:40:09.618Z,580
2018-06-10T09:41:18.481Z,570
2018-06-10T09:42:27.811Z,535
2018-06-10T09:43:36.671Z,455
2018-06-10T09:44:45.535Z,525
2018-06-10T09:45:54.675Z,560
2018-06-10T09:47:03.540Z,445
2018-06-10T09:48:12.405Z,320
2018-06-10T09:49:21.534Z,435
2018-06-10T09:50:30.396Z,430
2018-06-10T09:51:39.540Z,460
2018-06-10T09:52:48.684Z,505
2018-06-10T09:53:57.548Z,495
2018-06-10T09:55:06.495Z,455
2018-06-10T09:56:15.709Z,445
2018-06-10T09:57:24.588Z,560
2018-06-10T09:58:33.453Z,490
2018-06-10T09:59:42.318Z,470
2018-06-10T10:00:51.184Z,540
2018-06-10T10:02:00.333Z,565
2018-06-10T10:03:09.523Z,525
2018-06-10T10:04:18.440Z,610
2018-06-10T10:05:27.305Z,655
2018-06-10T10:06:36.173Z,675
2018-06-10T10:07:45.036Z,655
2018-06-10T10:08:54.222Z,645
2018-06-10T10:10:03.373Z,610
2018-06-10T10:11:12.512Z,575
2018-06-10T10:12:21.437Z,545
2018-06-10T10:13:30.575Z,495
2018-06-10T10:14:40.027Z,450
2018-06-10T10:15:48.850Z,440
2018-06-10T10:16:57.714Z,415
2018-06-10T10:18:06.590Z,405
2018-06-10T10:19:15.448Z,395
2018-06-10T10:20:24.366Z,330
2018-06-10T10:21:33.373Z,290
2018-06-10T10:22:42.244Z,305
2018-06-10T10:23:51.391Z,335
2018-06-10T10:25:00.532Z,370
2018-06-10T10:26:09.590Z,370
2018-06-10T10:27:18.457Z,355
2018-06-10T10:28:27.357Z,340
2018-06-10T10:29:36.241Z,325
2018-06-10T10:30:45.387Z,330
2018-06-10T10:31:54.735Z,350
2018-06-10T10:33:03.819Z,360
2018-06-10T10:34:12.686Z,365
2018-06-10T10:35:21.550Z,370
2018-06-10T10:36:30.416Z,375
2018-06-10T10:37:39.533Z,395
2018-06-10T10:38:48.400Z,415
2018-06-10T10:39:57.547Z,420
2018-06-10T10:41:06.433Z,430
2018-06-10T10:42:15.297Z,425
2018-06-10T10:43:24.440Z,435
2018-06-10T10:44:33.305Z,460
2018-06-10T10:45:42.178Z,465
2018-06-10T10:46:51.042Z,430
2018-06-10T10:47:59.913Z,465
2018-06-10T10:49:08.976Z,500
2018-06-10T10:50:18.009Z,485
2018-06-10T10:51:27.152Z,530
2018-06-10T10:52:36.294Z,545
2018-06-10T10:53:45.314Z,540
2018-06-10T10:54:54.328Z,530
2018-06-10T10:56:03.609Z,500
2018-06-10T10:57:12.634Z,515
2018-06-10T10:58:21.836Z,510
2018-06-10T10:59:30.709Z,465
2018-06-10T11:00:39.570Z,505
2018-06-10T11:01:48.477Z,575
2018-06-10T11:02:57.299Z,595
2018-06-10T11:04:06.164Z,560
2018-06-10T11:05:15.366Z,560
2018-06-10T11:06:24.585Z,630
2018-06-10T11:07:33.462Z,655
2018-06-10T11:08:42.613Z,675
2018-06-10T11:09:51.758Z,675
2018-06-10T11:11:00.826Z,705
2018-06-10T11:12:10.121Z,730
2018-06-10T11:13:18.995Z,760
2018-06-10T11:14:28.138Z,760
2018-06-10T11:15:37.006Z,760
2018-06-10T11:16:46.152Z,715
2018-06-10T11:17:55.173Z,695
2018-06-10T11:19:04.038Z,680
2018-06-10T11:20:12.907Z,680
2018-06-10T11:21:21.772Z,685
2018-06-10T11:22:30.915Z,695
2018-06-10T11:23:40.489Z,700
2018-06-10T11:24:49.357Z,710
2018-06-10T11:25:58.225Z,735
2018-06-10T11:27:07.423Z,740
2018-06-10T11:28:16.253Z,740
2018-06-10T11:29:25.694Z,755
2018-06-10T11:30:34.561Z,770
2018-06-10T11:31:43.707Z,785
2018-06-10T11:32:52.568Z,815
2018-06-10T11:34:01.435Z,910
2018-06-10T11:35:10.629Z,995
2018-06-10T11:36:19.496Z,1080
2018-06-10T11:37:28.645Z,1030
2018-06-10T11:38:37.509Z,1000
2018-06-10T11:39:46.375Z,980
2018-06-10T11:40:55.392Z,975
2018-06-10T11:42:04.544Z,990
2018-06-10T11:43:13.412Z,960
2018-06-10T11:44:22.280Z,950
2018-06-10T11:45:31.145Z,835
2018-06-10T11:46:40.291Z,780
2018-06-10T11:47:49.986Z,820
2018-06-10T11:48:58.852Z,875
2018-06-10T11:50:08.277Z,860
2018-06-10T11:51:17.141Z,905
2018-06-10T11:52:26.156Z,955
2018-06-10T11:53:35.301Z,975
2018-06-10T11:54:44.447Z,995
2018-06-10T11:55:53.317Z,980
2018-06-10T11:57:02.191Z,985
2018-06-10T11:58:11.691Z,980
2018-06-10T11:59:20.796Z,975
2018-06-10T12:00:29.662Z,985
2018-06-10T12:01:38.530Z,1025
2018-06-10T12:02:47.403Z,1035
2018-06-10T12:03:56.273Z,1100
2018-06-10T12:05:05.141Z,1585
2018-06-10T12:06:14.008Z,1475
2018-06-10T12:07:22.875Z,1395
2018-06-10T12:08:31.745Z,2400
2018-06-10T12:09:40.671Z,1985
2018-06-10T12:10:49.547Z,1440
2018-06-10T12:11:58.742Z,1810
2018-06-10T12:13:07.616Z,1140
2018-06-10T12:14:16.502Z,1710
2018-06-10T12:15:25.823Z,1700
2018-06-10T12:16:34.737Z,1475
2018-06-10T12:17:43.565Z,1150
2018-06-10T12:18:52.434Z,945
2018-06-10T12:20:01.307Z,2740
2018-06-10T12:21:10.628Z,2995
2018-06-10T12:22:19.496Z,2630
2018-06-10T12:23:28.368Z,2675
2018-06-10T12:24:37.916Z,3090
2018-06-10T12:25:46.808Z,2800
2018-06-10T12:26:55.780Z,3125
2018-06-10T12:28:04.652Z,3185
2018-06-10T12:29:13.550Z,3690
2018-06-10T12:30:22.394Z,3460
2018-06-10T12:31:31.932Z,3560
2018-06-10T12:32:40.850Z,3480
2018-06-10T12:33:49.783Z,3285
2018-06-10T12:34:58.654Z,3490
2018-06-10T12:36:07.811Z,3285
2018-06-10T12:37:17.239Z,3550
2018-06-10T12:38:26.262Z,3495
2018-06-10T12:39:35.417Z,3050
2018-06-10T12:40:44.291Z,3485
2018-06-10T12:41:53.165Z,3700
2018-06-10T12:43:02.040Z,3500
2018-06-10T12:44:11.267Z,3425
2018-06-10T12:45:20.142Z,3135
2018-06-10T12:46:29.017Z,3125
2018-06-10T12:47:37.887Z,2010
2018-06-10T12:48:46.761Z,2910
2018-06-10T12:49:56.271Z,3350
2018-06-10T12:51:05.147Z,3320
2018-06-10T12:52:14.023Z,3730
2018-06-10T12:53:22.897Z,3510
2018-06-10T12:54:31.776Z,3640
2018-06-10T12:55:41.076Z,3165
2018-06-10T12:56:50.604Z,2260
2018-06-10T12:57:59.410Z,755
2018-06-10T12:59:08.567Z,1640
2018-06-10T13:00:17.445Z,3475
2018-06-10T13:01:26.647Z,3610
2018-06-10T13:02:36.077Z,3525
2018-06-10T13:03:45.227Z,3335
2018-06-10T13:04:54.102Z,3525
2018-06-10T13:06:03.253Z,3595
2018-06-10T13:07:12.829Z,1535
2018-06-10T13:08:21.989Z,1505
2018-06-10T13:09:30.868Z,3385
2018-06-10T13:10:39.744Z,3435
2018-06-10T13:11:48.619Z,1180
2018-06-10T13:12:57.647Z,1420
2018-06-10T13:14:06.531Z,3565
2018-06-10T13:15:15.407Z,3415
2018-06-10T13:16:24.558Z,3445
2018-06-10T13:17:33.432Z,3025
2018-06-10T13:18:42.583Z,3355
2018-06-10T13:19:51.456Z,3720
2018-06-10T13:21:00.332Z,2060
2018-06-10T13:22:09.770Z,2005
2018-06-10T13:23:18.648Z,3620
2018-06-10T13:24:27.624Z,3480
2018-06-10T13:25:36.503Z,3820
2018-06-10T13:26:45.378Z,3785
2018-06-10T13:27:54.255Z,3135
2018-06-10T13:29:03.131Z,1155
2018-06-10T13:30:12.056Z,3465
2018-06-10T13:31:20.929Z,3285
2018-06-10T13:32:30.085Z,935
2018-06-10T13:33:38.958Z,1585
2018-06-10T13:34:47.839Z,1310
2018-06-10T13:35:56.818Z,3420
2018-06-10T13:37:05.693Z,3655
2018-06-10T13:38:17.873Z,3485
2018-06-10T13:39:26.747Z,3450
2018-06-10T13:40:36.234Z,2635
2018-06-10T13:41:45.101Z,1270
2018-06-10T13:42:53.977Z,3790
2018-06-10T13:44:02.850Z,2220
2018-06-10T13:45:11.724Z,1475
2018-06-10T13:46:20.597Z,710
2018-06-10T13:47:29.675Z,670
2018-06-10T13:48:38.549Z,1555
2018-06-10T13:49:47.425Z,640
2018-06-10T13:50:56.305Z,655
2018-06-10T13:52:05.174Z,635
2018-06-10T13:53:14.148Z,685
2018-06-10T13:54:23.024Z,665
2018-06-10T13:55:31.901Z,705
2018-06-10T13:56:40.770Z,700
2018-06-10T13:57:49.639Z,915
2018-06-10T13:58:58.861Z,1425
2018-06-10T14:00:08.010Z,2305
2018-06-10T14:01:16.885Z,985
2018-06-10T14:02:25.755Z,985
2018-06-10T14:03:35.174Z,3270
2018-06-10T14:04:44.192Z,3275
2018-06-10T14:05:53.063Z,1440
2018-06-10T14:07:02.215Z,1595
2018-06-10T14:08:11.362Z,1120
2018-06-10T14:09:20.234Z,3115
2018-06-10T14:10:29.105Z,3405
2018-06-10T14:11:39.260Z,3095
2018-06-10T14:12:48.132Z,2355
2018-06-10T14:13:57.004Z,3185
2018-06-10T14:15:06.463Z,1115
2018-06-10T14:16:15.462Z,3150
2018-06-10T14:17:24.614Z,870
2018-06-10T14:18:33.485Z,945
2018-06-10T14:19:42.686Z,730
2018-06-10T14:20:51.836Z,605
2018-06-10T14:22:00.758Z,550
2018-06-10T14:23:10.193Z,570
2018-06-10T14:24:19.065Z,565
2018-06-10T14:25:27.936Z,545
2018-06-10T14:26:36.807Z,540
2018-06-10T14:27:45.827Z,600
2018-06-10T14:28:54.977Z,705
2018-06-10T14:30:04.127Z,745
2018-06-10T14:31:12.997Z,795
2018-06-10T14:32:21.867Z,995
2018-06-10T14:33:30.887Z,950
2018-06-10T14:34:39.761Z,865
2018-06-10T14:35:48.630Z,795
2018-06-10T14:36:58.071Z,690
2018-06-10T14:38:06.941Z,805
2018-06-10T14:39:15.909Z,2815
2018-06-10T14:40:25.056Z,1180
2018-06-10T14:41:33.930Z,850
2018-06-10T14:42:43.086Z,775
2018-06-10T14:43:51.953Z,955
2018-06-10T14:45:00.922Z,2915
2018-06-10T14:46:09.792Z,2210
2018-06-10T14:47:18.944Z,2925
2018-06-10T14:48:27.812Z,3190
2018-06-10T14:49:37.431Z,3275
2018-06-10T14:50:46.386Z,2885
2018-06-10T14:51:55.262Z,2700
2018-06-10T14:53:04.136Z,3070
2018-06-10T14:54:13.283Z,3125
2018-06-10T14:55:22.157Z,3110
2018-06-10T14:56:31.178Z,3150
2018-06-10T14:57:40.050Z,1650
2018-06-10T14:58:48.933Z,2630
2018-06-10T14:59:57.805Z,1630
2018-06-10T15:01:06.953Z,2850
2018-06-10T15:02:15.981Z,1535
2018-06-10T15:03:25.144Z,2745
2018-06-10T15:04:34.031Z,2760
2018-06-10T15:05:43.183Z,2545
2018-06-10T15:06:52.056Z,935
2018-06-10T15:08:01.030Z,965
2018-06-10T15:09:10.180Z,965
2018-06-10T15:10:19.054Z,2170
2018-06-10T15:11:27.929Z,2450
2018-06-10T15:12:37.354Z,1195
2018-06-10T15:13:46.659Z,960
2018-06-10T15:14:55.530Z,750
2018-06-10T15:16:04.407Z,670
2018-06-10T15:17:13.559Z,675
2018-06-10T15:18:22.711Z,745
2018-06-10T15:19:31.932Z,895
2018-06-10T15:20:40.805Z,1795
2018-06-10T15:21:49.957Z,1375
2018-06-10T15:22:58.829Z,1020
2018-06-10T15:24:07.701Z,670
2018-06-10T15:25:16.673Z,445
2018-06-10T15:26:25.541Z,320
2018-06-10T15:27:34.411Z,310
2018-06-10T15:28:43.635Z,350
2018-06-10T15:29:52.436Z,390
2018-06-10T15:31:01.661Z,380
2018-06-10T15:32:10.531Z,330
2018-06-10T15:33:19.412Z,280
2018-06-10T15:34:28.281Z,240
2018-06-10T15:35:37.150Z,225
2018-06-10T15:36:46.369Z,235
2018-06-10T15:37:55.243Z,280
2018-06-10T15:39:04.668Z,325
2018-06-10T15:40:13.535Z,360
2018-06-10T15:41:22.403Z,375
2018-06-10T15:42:32.383Z,430
2018-06-10T15:43:41.533Z,585
2018-06-10T15:44:50.401Z,510
2018-06-10T15:45:59.548Z,430
2018-06-10T15:47:08.426Z,485
2018-06-10T15:48:17.436Z,740
2018-06-10T15:49:26.583Z,870
2018-06-10T15:50:35.727Z,1050
2018-06-10T15:51:44.594Z,975
2018-06-10T15:52:53.465Z,720
2018-06-10T15:54:02.762Z,675
2018-06-10T15:55:11.630Z,495
2018-06-10T15:56:20.497Z,395
2018-06-10T15:57:29.364Z,335
2018-06-10T15:58:38.508Z,330
2018-06-10T15:59:47.426Z,380
2018-06-10T16:00:56.293Z,455
2018-06-10T16:02:05.439Z,620